Time;durP1;ratioP1;P1;durP2;ratioP2;P2;SDS_P1;SDS_P2;PMS_P1;PMS_P2;Temp;Humidity;BMP_temperature;BMP_pressure;BME280_temperature;BME280_humidity;BME280_pressure;Samples;Min_cycle;Max_cycle;Signal;HPM_P1;HPM_P2
2022/12/03 00:00:42;;;;;;;5.32;3.78;;;14.10;68.10;;;;;;5125231;28;20139;-68
2022/12/03 00:03:08;;;;;;;3.72;3.33;;;14.20;68.10;;;;;;5141207;27;20015;-67
2022/12/03 00:05:34;;;;;;;5.22;4.20;;;14.20;68.10;;;;;;5106882;28;20023;-67
2022/12/03 00:08:00;;;;;;;4.15;3.50;;;14.20;67.90;;;;;;5125026;28;20370;-68
2022/12/03 00:10:25;;;;;;;3.97;3.58;;;14.20;67.90;;;;;;5125045;28;20053;-68
2022/12/03 00:12:51;;;;;;;5.47;3.97;;;14.20;67.90;;;;;;5124985;28;20028;-67
2022/12/03 00:15:17;;;;;;;4.95;3.80;;;14.20;67.90;;;;;;5124862;28;20015;-67
2022/12/03 00:17:43;;;;;;;4.50;3.50;;;14.20;67.90;;;;;;5124870;28;20326;-68
2022/12/03 00:20:16;;;;;;;5.50;3.72;;;14.20;67.90;;;;;;5124864;28;20389;-68
2022/12/03 00:22:42;;;;;;;5.15;4.07;;;14.20;68.10;;;;;;5124886;28;20489;-68
2022/12/03 00:25:08;;;;;;;5.00;4.03;;;14.10;68.10;;;;;;5124808;28;20028;-68
2022/12/03 00:27:34;;;;;;;4.07;3.55;;;14.10;68.30;;;;;;5124688;28;20015;-68
2022/12/03 00:29:59;;;;;;;3.75;3.00;;;14.10;68.50;;;;;;5124741;28;20339;-68
2022/12/03 00:32:25;;;;;;;4.25;3.20;;;14.10;68.50;;;;;;5106329;28;20020;-68
2022/12/03 00:34:51;;;;;;;5.13;3.70;;;14.00;68.50;;;;;;5124433;28;20023;-68
2022/12/03 00:37:17;;;;;;;4.32;3.58;;;14.00;68.60;;;;;;5124697;28;20023;-66
2022/12/03 00:39:43;;;;;;;5.82;3.90;;;14.10;68.50;;;;;;5124455;28;20096;-67
2022/12/03 00:42:08;;;;;;;4.55;3.40;;;14.10;68.50;;;;;;5124242;28;20028;-67
2022/12/03 00:44:34;;;;;;;4.50;3.20;;;14.10;68.50;;;;;;5123287;28;20020;-68
2022/12/03 00:47:00;;;;;;;4.18;3.45;;;14.10;68.60;;;;;;5124227;28;20141;-68
2022/12/03 00:49:26;;;;;;;6.32;4.18;;;14.10;68.50;;;;;;5124228;28;20064;-69
2022/12/03 00:51:52;;;;;;;4.95;3.90;;;14.10;68.50;;;;;;5124166;28;20102;-68
2022/12/03 00:54:17;;;;;;;4.43;3.85;;;14.10;68.30;;;;;;5124119;28;20027;-66
2022/12/03 00:56:43;;;;;;;5.75;3.88;;;14.10;68.30;;;;;;5124123;28;20199;-68
2022/12/03 00:59:09;;;;;;;4.68;3.38;;;14.10;68.30;;;;;;5124097;28;20019;-66
2022/12/03 01:01:35;;;;;;;5.70;3.83;;;14.10;68.30;;;;;;5124060;28;20011;-68
2022/12/03 01:04:00;;;;;;;5.00;4.18;;;14.10;68.30;;;;;;5124021;28;20051;-67
2022/12/03 01:06:26;;;;;;;5.15;3.67;;;14.10;68.20;;;;;;5123886;28;20024;-68
2022/12/03 01:08:52;;;;;;;4.07;3.58;;;14.10;68.10;;;;;;5123885;28;20590;-69
2022/12/03 01:11:36;;;;;;;3.80;3.10;;;14.20;68.20;;;;;;5123844;28;20035;-68
2022/12/03 01:14:03;;;;;;;3.53;3.15;;;14.20;68.10;;;;;;5123735;28;20050;-68
2022/12/03 01:16:29;;;;;;;4.47;3.50;;;14.20;68.10;;;;;;5123796;28;20027;-67
2022/12/03 01:18:55;;;;;;;4.53;3.33;;;14.20;67.90;;;;;;5123749;28;20208;-67
2022/12/03 01:21:20;;;;;;;4.10;3.25;;;14.20;67.90;;;;;;5123605;28;20223;-67
2022/12/03 01:23:46;;;;;;;5.25;4.20;;;14.10;67.80;;;;;;5123571;28;20035;-68
2022/12/03 01:26:12;;;;;;;5.50;3.83;;;14.20;67.80;;;;;;5105267;28;20019;-68
2022/12/03 01:28:38;;;;;;;4.03;3.50;;;14.20;67.80;;;;;;5105274;28;20019;-67
2022/12/03 01:33:48;;;;;;;4.47;3.60;;;14.20;68.00;;;;;;5123327;28;20218;-67
2022/12/03 01:36:14;;;;;;;4.22;3.67;;;14.10;68.20;;;;;;5123289;28;20012;-67
2022/12/03 01:38:39;;;;;;;5.03;3.92;;;14.00;68.20;;;;;;5123391;28;20019;-68
2022/12/03 01:41:05;;;;;;;5.13;3.55;;;14.10;68.30;;;;;;5123134;28;20082;-67
2022/12/03 01:43:31;;;;;;;4.35;3.42;;;14.10;68.30;;;;;;5123067;28;20051;-68
2022/12/03 01:45:57;;;;;;;5.28;3.83;;;14.10;68.40;;;;;;5123197;28;20030;-68
2022/12/03 01:48:22;;;;;;;4.78;3.50;;;14.10;68.50;;;;;;5123140;28;20020;-67
2022/12/03 01:50:48;;;;;;;4.88;3.85;;;14.10;68.30;;;;;;5123105;28;20342;-67
2022/12/03 01:53:17;;;;;;;4.32;3.92;;;14.10;68.30;;;;;;5123075;28;20030;-67
2022/12/03 01:55:44;;;;;;;6.10;3.78;;;14.10;68.50;;;;;;5122647;28;20039;-68
2022/12/03 01:58:13;;;;;;;5.70;4.18;;;14.10;68.50;;;;;;5122983;28;20023;-67
2022/12/03 02:00:39;;;;;;;;;;;14.10;68.50;;;;;;5123401;28;20397;-67
2022/12/03 02:03:15;;;;;;;4.50;3.60;;;14.10;69.00;;;;;;5122910;28;19900;-67
2022/12/03 02:05:42;;;;;;;4.60;3.40;;;14.10;68.40;;;;;;5122925;28;20095;-67
2022/12/03 02:08:34;;;;;;;5.72;4.32;;;14.10;68.30;;;;;;5122821;28;20030;-68
2022/12/03 02:11:09;;;;;;;4.65;3.47;;;14.10;68.20;;;;;;5104548;28;20223;-67
2022/12/03 02:13:35;;;;;;;7.03;4.45;;;14.10;68.20;;;;;;5122792;28;20015;-68
2022/12/03 02:16:02;;;;;;;4.47;3.55;;;14.10;68.20;;;;;;5122630;28;20027;-68
2022/12/03 02:18:28;;;;;;;5.40;3.92;;;14.10;68.20;;;;;;5122731;28;20016;-68
2022/12/03 02:21:00;;;;;;;5.60;3.90;;;14.10;68.20;;;;;;5122755;28;20024;-68
2022/12/03 02:23:55;;;;;;;4.45;3.53;;;14.10;68.00;;;;;;5122730;28;20011;-68
2022/12/03 02:26:21;;;;;;;6.03;3.95;;;14.10;68.10;;;;;;5093660;28;20057;-67
2022/12/03 02:28:47;;;;;;;5.43;3.97;;;14.20;68.00;;;;;;5122697;28;20019;-68
2022/12/03 02:31:13;;;;;;;5.05;3.47;;;14.20;67.90;;;;;;5122548;28;20326;-68
2022/12/03 02:33:39;;;;;;;4.00;3.60;;;14.20;67.80;;;;;;5122518;28;20241;-68
2022/12/03 02:36:05;;;;;;;3.90;3.20;;;14.20;67.90;;;;;;5122438;28;20061;-67
2022/12/03 02:38:33;;;;;;;5.65;3.92;;;14.20;67.90;;;;;;5122474;28;20016;-67
2022/12/03 02:41:03;;;;;;;4.78;3.50;;;14.20;68.00;;;;;;5122462;28;20007;-68
2022/12/03 02:43:30;;;;;;;5.25;4.00;;;14.10;68.10;;;;;;5122440;28;20043;-68
2022/12/03 02:45:59;;;;;;;4.20;3.58;;;14.10;68.30;;;;;;5104249;28;20027;-67
2022/12/03 02:48:27;;;;;;;4.80;3.97;;;14.10;68.40;;;;;;5122398;28;20047;-67
2022/12/03 02:50:56;;;;;;;4.35;3.72;;;14.10;68.50;;;;;;5122378;28;20239;-68
2022/12/03 02:53:31;;;;;;;5.68;3.72;;;14.00;68.50;;;;;;5122411;28;20027;-67
2022/12/03 02:56:00;;;;;;;4.18;3.20;;;14.00;68.60;;;;;;5122206;28;20060;-68
2022/12/03 02:58:27;;;;;;;;;;;14.00;68.60;;;;;;5122817;28;20016;-69
2022/12/03 03:00:54;;;;;;;5.35;3.50;;;14.00;68.50;;;;;;5122392;28;19906;-68
2022/12/03 03:03:21;;;;;;;5.53;4.20;;;14.00;68.60;;;;;;5122299;28;20053;-68
2022/12/03 03:05:49;;;;;;;5.75;3.72;;;14.00;68.60;;;;;;5122269;28;20023;-68
2022/12/03 03:08:16;;;;;;;6.03;4.07;;;14.10;68.50;;;;;;5123285;28;20020;-68
2022/12/03 03:10:43;;;;;;;3.97;3.55;;;14.10;68.40;;;;;;5107977;28;20020;-69
2022/12/03 03:13:12;;;;;;;4.97;3.83;;;14.10;68.30;;;;;;5126180;28;20015;-68
2022/12/03 03:15:39;;;;;;;5.32;3.53;;;14.10;68.30;;;;;;5126064;28;20177;-67
2022/12/03 03:18:06;;;;;;;5.93;4.70;;;14.10;68.30;;;;;;5126112;28;20462;-68
2022/12/03 03:20:32;;;;;;;5.20;3.70;;;14.10;68.20;;;;;;5126059;28;20219;-68
2022/12/03 03:23:10;;;;;;;5.18;3.80;;;14.10;68.30;;;;;;5125878;28;20007;-67
2022/12/03 03:25:41;;;;;;;4.03;3.33;;;14.10;68.20;;;;;;5125931;28;20068;-69
2022/12/03 03:28:07;;;;;;;5.50;3.65;;;14.10;68.20;;;;;;5125918;28;20019;-68
2022/12/03 03:30:34;;;;;;;4.50;3.72;;;14.10;68.10;;;;;;5125837;28;20311;-68
2022/12/03 03:33:00;;;;;;;5.97;3.97;;;14.10;68.10;;;;;;5125751;28;20086;-67
2022/12/03 03:35:26;;;;;;;5.93;4.30;;;14.10;68.00;;;;;;5125600;28;20081;-67
2022/12/03 03:37:53;;;;;;;4.35;3.65;;;14.10;67.90;;;;;;5125694;28;20361;-68
2022/12/03 03:40:23;;;;;;;5.10;3.50;;;14.20;67.90;;;;;;5125633;28;20038;-68
2022/12/03 03:42:49;;;;;;;4.82;3.55;;;14.10;67.80;;;;;;5107239;28;20050;-68
2022/12/03 03:45:15;;;;;;;4.03;3.28;;;14.20;67.90;;;;;;5125638;28;20023;-67
2022/12/03 03:47:41;;;;;;;4.57;3.78;;;14.10;67.90;;;;;;5125540;28;20054;-67
2022/12/03 03:50:09;;;;;;;5.40;3.95;;;14.10;68.00;;;;;;5125528;28;20023;-68
2022/12/03 03:52:36;;;;;;;5.32;3.92;;;14.10;68.10;;;;;;5125422;28;20034;-68
2022/12/03 03:55:03;;;;;;;5.18;3.70;;;14.10;68.20;;;;;;5125318;28;20038;-68
2022/12/03 03:57:29;;;;;;;4.60;3.70;;;14.10;68.40;;;;;;5125316;28;20011;-68
2022/12/03 03:59:56;;;;;;;4.90;3.80;;;14.00;68.40;;;;;;5125270;28;20096;-68
2022/12/03 04:02:25;;;;;;;5.75;4.32;;;14.00;68.40;;;;;;5125238;28;20023;-67
2022/12/03 04:04:51;;;;;;;5.28;3.72;;;14.10;68.50;;;;;;5125189;28;20047;-67
2022/12/03 04:07:17;;;;;;;4.75;3.83;;;14.10;68.50;;;;;;5125146;28;20031;-68
2022/12/03 04:09:43;;;;;;;4.82;3.90;;;14.10;68.40;;;;;;5125080;28;20096;-67
2022/12/03 04:14:55;;;;;;;4.85;3.72;;;14.10;68.50;;;;;;5124942;28;20023;-68
2022/12/03 04:17:21;;;;;;;5.45;4.10;;;14.10;68.60;;;;;;5124928;28;20075;-68
2022/12/03 04:19:47;;;;;;;4.65;3.58;;;14.00;68.50;;;;;;5124608;28;20015;-68
2022/12/03 04:28:47;;;;;;;4.55;3.65;;;14.10;68.20;;;;;;5124817;28;20105;-67
2022/12/03 04:30:28;;;;;;;4.57;3.33;;;14.10;68.20;;;;;;5124701;28;20069;-68
2022/12/03 04:35:43;;;;;;;6.15;4.28;;;14.10;68.10;;;;;;5124539;28;20411;-68
2022/12/03 04:38:11;;;;;;;5.20;4.13;;;14.10;68.10;;;;;;5124589;28;20023;-69
2022/12/03 04:43:21;;;;;;;5.88;4.00;;;14.10;68.00;;;;;;5124292;28;20093;-68
2022/12/03 04:45:47;;;;;;;4.60;3.70;;;14.10;68.00;;;;;;5140361;27;20632;-67
2022/12/03 04:48:13;;;;;;;5.95;3.92;;;14.10;67.90;;;;;;5124328;28;20032;-67
2022/12/03 04:50:38;;;;;;;5.47;3.97;;;14.10;67.90;;;;;;5124279;28;20039;-68
2022/12/03 04:53:04;;;;;;;5.78;4.32;;;14.10;67.80;;;;;;5124114;28;20020;-67
2022/12/03 04:55:30;;;;;;;5.50;4.03;;;14.10;67.80;;;;;;5124078;28;20064;-68
2022/12/03 04:57:56;;;;;;;4.75;3.60;;;14.10;67.90;;;;;;5124099;28;20030;-68
2022/12/03 05:00:21;;;;;;;5.32;4.05;;;14.10;68.00;;;;;;5123993;28;20012;-67
2022/12/03 05:02:47;;;;;;;4.70;3.85;;;14.10;68.10;;;;;;5124061;28;20019;-67
2022/12/03 05:05:13;;;;;;;5.05;3.60;;;14.10;68.30;;;;;;5123923;28;20038;-67
2022/12/03 05:07:39;;;;;;;5.90;4.38;;;14.10;68.40;;;;;;5123898;28;20016;-68
2022/12/03 05:10:06;;;;;;;4.35;3.78;;;14.00;68.40;;;;;;5123913;28;20022;-68
2022/12/03 05:12:31;;;;;;;5.43;4.20;;;14.00;68.50;;;;;;5123865;28;20023;-68
2022/12/03 05:14:57;;;;;;;4.57;3.78;;;14.00;68.60;;;;;;5123713;28;20020;-68
2022/12/03 05:17:23;;;;;;;5.55;3.90;;;14.00;68.50;;;;;;5123755;28;20031;-67
2022/12/03 05:22:33;;;;;;;4.18;3.60;;;14.10;68.40;;;;;;5123758;28;20239;-68
2022/12/03 05:24:59;;;;;;;5.53;4.20;;;14.00;68.60;;;;;;5123643;28;20228;-67
2022/12/03 05:27:24;;;;;;;4.97;3.63;;;14.10;68.60;;;;;;5123526;28;20020;-68
2022/12/03 05:29:51;;;;;;;4.65;3.60;;;14.00;68.40;;;;;;5123526;28;20065;-68
2022/12/03 05:32:18;;;;;;;6.35;4.43;;;14.10;68.40;;;;;;5122925;28;20390;-68
2022/12/03 05:34:43;;;;;;;5.20;4.03;;;14.10;68.50;;;;;;5123350;28;20032;-67
2022/12/03 05:37:09;;;;;;;5.68;4.28;;;14.10;68.30;;;;;;5123426;28;20016;-68
2022/12/03 05:39:35;;;;;;;4.35;3.60;;;14.10;68.30;;;;;;5123341;28;20016;-68
2022/12/03 05:44:45;;;;;;;4.63;3.95;;;14.10;68.20;;;;;;5123266;28;20026;-68
2022/12/03 05:47:11;;;;;;;5.30;4.40;;;14.10;68.20;;;;;;5123124;28;20020;-68
2022/12/03 05:49:37;;;;;;;5.63;3.97;;;14.10;68.20;;;;;;5123083;28;20019;-68
2022/12/03 05:52:03;;;;;;;5.05;4.10;;;14.10;68.10;;;;;;5123110;28;20019;-68
2022/12/03 05:54:29;;;;;;;5.70;4.30;;;14.10;68.10;;;;;;5122995;28;20087;-67
2022/12/03 05:56:54;;;;;;;4.45;3.55;;;14.10;68.00;;;;;;5104869;28;20024;-67
2022/12/03 05:59:21;;;;;;;6.20;4.05;;;14.10;67.90;;;;;;5122925;28;20011;-68
2022/12/03 06:01:46;;;;;;;4.68;3.60;;;14.20;67.90;;;;;;5122930;28;20018;-68
2022/12/03 06:04:12;;;;;;;6.05;3.97;;;14.20;67.90;;;;;;5104776;28;20019;-68
2022/12/03 06:06:38;;;;;;;4.88;4.03;;;14.20;67.90;;;;;;5122858;28;20023;-69
2022/12/03 06:09:04;;;;;;;5.32;3.95;;;14.10;67.90;;;;;;5122834;28;20278;-69
2022/12/03 06:11:32;;;;;;;3.67;3.30;;;14.10;68.00;;;;;;5122811;28;20068;-68
2022/12/03 06:13:58;;;;;;;;;;;14.10;68.10;;;;;;5123067;28;20015;-68
2022/12/03 06:16:24;;;;;;;5.40;4.20;;;14.00;68.20;;;;;;5122721;28;19949;-68
2022/12/03 06:18:50;;;;;;;5.32;4.03;;;14.00;68.30;;;;;;5122763;28;20038;-66
2022/12/03 06:21:16;;;;;;;4.90;3.85;;;14.00;68.40;;;;;;5104497;28;20019;-68
2022/12/03 06:23:43;;;;;;;5.07;4.07;;;14.00;68.30;;;;;;5122649;28;20049;-68
2022/12/03 06:26:13;;;;;;;5.25;4.05;;;14.00;68.30;;;;;;5122625;28;20079;-69
2022/12/03 06:28:39;;;;;;;5.57;3.85;;;14.10;68.30;;;;;;5122620;28;20015;-68
2022/12/03 06:31:05;;;;;;;5.03;3.95;;;14.10;68.30;;;;;;5122574;28;20331;-68
2022/12/03 06:33:31;;;;;;;4.57;4.18;;;14.10;68.40;;;;;;5122538;28;20027;-68
2022/12/03 06:35:57;;;;;;;4.57;3.83;;;14.00;68.50;;;;;;5122409;28;20020;-68
2022/12/03 06:38:22;;;;;;;5.22;4.15;;;14.10;68.40;;;;;;5122452;28;20015;-68
2022/12/03 06:40:48;;;;;;;4.93;3.50;;;14.10;68.20;;;;;;5122471;28;20368;-69
2022/12/03 06:43:14;;;;;;;4.22;3.67;;;14.10;68.20;;;;;;5123369;28;20039;-68
2022/12/03 06:45:40;;;;;;;6.13;4.60;;;14.10;68.20;;;;;;5126668;28;20027;-67
2022/12/03 06:48:07;;;;;;;4.97;3.90;;;14.10;68.20;;;;;;5126644;28;20038;-68
2022/12/03 06:50:32;;;;;;;5.15;3.90;;;14.10;68.20;;;;;;5126603;28;20023;-67
2022/12/03 06:52:58;;;;;;;5.47;4.32;;;14.10;68.10;;;;;;5126521;28;20037;-67
2022/12/03 06:55:24;;;;;;;6.72;4.07;;;14.10;68.10;;;;;;5126359;28;20023;-68
2022/12/03 06:57:50;;;;;;;5.88;4.70;;;14.10;68.10;;;;;;5126465;28;20343;-68
2022/12/03 07:00:16;;;;;;;7.30;4.25;;;14.10;68.10;;;;;;5126380;28;20084;-67
2022/12/03 07:02:43;;;;;;;4.15;3.45;;;14.10;68.10;;;;;;5126350;28;20042;-68
2022/12/03 07:05:09;;;;;;;6.05;4.60;;;14.10;68.10;;;;;;5126268;28;20030;-67
2022/12/03 07:07:35;;;;;;;4.55;3.95;;;14.10;68.00;;;;;;5126234;28;20065;-68
2022/12/03 07:10:01;;;;;;;4.88;3.70;;;14.10;68.00;;;;;;5126191;28;20024;-67
2022/12/03 07:12:27;;;;;;;5.55;3.85;;;14.10;68.00;;;;;;5107877;28;20023;-67
2022/12/03 07:14:53;;;;;;;5.15;3.95;;;14.10;67.90;;;;;;5126053;28;20030;-69
2022/12/03 07:17:19;;;;;;;5.72;3.70;;;14.20;68.00;;;;;;5126086;28;20019;-67
2022/12/03 07:19:44;;;;;;;5.80;4.25;;;14.10;68.00;;;;;;5142032;27;20366;-67
2022/12/03 07:22:10;;;;;;;5.75;4.30;;;14.10;68.10;;;;;;5125946;28;20015;-68
2022/12/03 07:24:36;;;;;;;6.22;4.30;;;14.10;68.10;;;;;;5125896;28;20027;-68
2022/12/03 07:27:02;;;;;;;4.85;3.60;;;14.10;68.30;;;;;;5107640;28;20091;-68
2022/12/03 07:29:28;;;;;;;6.35;4.75;;;14.10;68.40;;;;;;5125857;28;20019;-68
2022/12/03 07:31:53;;;;;;;4.22;3.75;;;14.10;68.40;;;;;;5125763;28;20207;-68
2022/12/03 07:34:19;;;;;;;3.88;3.22;;;14.10;68.40;;;;;;5125750;28;20026;-68
2022/12/03 07:36:45;;;;;;;4.30;3.42;;;14.00;68.40;;;;;;5125736;28;20022;-68
2022/12/03 07:39:11;;;;;;;5.18;3.95;;;14.10;68.50;;;;;;5125631;28;20019;-68
2022/12/03 07:41:37;;;;;;;5.57;4.25;;;14.00;68.50;;;;;;5125489;28;20019;-67
2022/12/03 07:44:03;;;;;;;5.32;4.13;;;14.10;68.50;;;;;;5125564;28;20215;-67
2022/12/03 07:46:29;;;;;;;8.73;4.72;;;14.00;68.50;;;;;;5125531;28;20019;-68
2022/12/03 07:48:55;;;;;;;5.50;4.03;;;14.00;68.50;;;;;;5125468;28;20011;-67
2022/12/03 07:51:21;;;;;;;5.15;3.53;;;14.10;68.40;;;;;;5125369;28;20072;-67
2022/12/03 07:53:46;;;;;;;5.57;3.70;;;14.10;68.40;;;;;;5124758;28;20031;-67
2022/12/03 07:56:12;;;;;;;5.00;4.00;;;14.10;68.30;;;;;;5125238;28;20095;-67
2022/12/03 07:58:38;;;;;;;5.15;3.88;;;14.10;68.20;;;;;;5125310;28;20019;-68
2022/12/03 08:01:04;;;;;;;4.55;3.65;;;14.10;68.10;;;;;;5125243;28;20057;-68
2022/12/03 08:03:30;;;;;;;5.55;4.05;;;14.10;68.20;;;;;;5125170;28;20049;-68
2022/12/03 08:05:56;;;;;;;5.32;3.85;;;14.10;68.10;;;;;;5125100;28;20019;-68
2022/12/03 08:08:21;;;;;;;5.43;4.40;;;14.10;68.10;;;;;;5125031;28;20023;-68
2022/12/03 08:10:47;;;;;;;5.47;4.15;;;14.10;68.10;;;;;;5125054;28;20023;-68
2022/12/03 08:13:18;;;;;;;5.15;4.10;;;14.10;68.00;;;;;;5124951;28;20248;-68
2022/12/03 08:15:45;;;;;;;5.75;3.95;;;14.10;67.90;;;;;;5124919;28;20199;-68
2022/12/03 08:18:19;;;;;;;5.43;3.97;;;14.20;67.90;;;;;;5124919;28;20289;-67
2022/12/03 08:20:47;;;;;;;5.97;4.13;;;14.20;67.90;;;;;;5124823;28;20019;-68
2022/12/03 08:23:19;;;;;;;6.15;4.13;;;14.20;67.80;;;;;;5124883;28;20068;-68
2022/12/03 08:25:46;;;;;;;4.93;3.92;;;14.20;67.80;;;;;;5124653;28;20023;-69
2022/12/03 08:28:14;;;;;;;5.22;3.63;;;14.10;67.70;;;;;;5124754;28;20029;-68
2022/12/03 08:30:41;;;;;;;6.72;4.60;;;14.10;67.70;;;;;;5124685;28;20060;-68
2022/12/03 08:33:23;;;;;;;4.97;4.07;;;14.20;67.80;;;;;;5124639;28;20047;-68
2022/12/03 08:35:50;;;;;;;4.90;3.88;;;14.20;68.50;;;;;;5124541;28;20023;-68
2022/12/03 08:38:18;;;;;;;4.70;4.20;;;14.10;67.90;;;;;;5124433;28;20071;-67
2022/12/03 08:40:47;;;;;;;4.30;3.75;;;14.10;67.90;;;;;;5124475;28;20018;-67
2022/12/03 08:43:21;;;;;;;4.72;3.50;;;14.20;68.10;;;;;;5124190;28;20664;-68
2022/12/03 08:45:49;;;;;;;4.55;3.30;;;14.10;68.10;;;;;;5124377;28;20062;-68
2022/12/03 08:48:20;;;;;;;4.78;3.78;;;14.10;68.20;;;;;;5124343;28;20015;-67
2022/12/03 08:50:46;;;;;;;5.47;3.72;;;14.10;68.30;;;;;;5124311;28;20020;-68
2022/12/03 08:53:12;;;;;;;4.82;3.78;;;14.10;68.40;;;;;;5124252;28;20303;-67
2022/12/03 08:55:45;;;;;;;4.82;3.65;;;14.10;68.30;;;;;;5124080;28;20031;-68
2022/12/03 08:58:26;;;;;;;5.80;3.83;;;14.10;68.30;;;;;;5124075;28;20016;-68
2022/12/03 09:01:23;;;;;;;4.65;3.47;;;14.10;68.30;;;;;;5124183;28;20043;-68
2022/12/03 09:03:53;;;;;;;4.65;3.60;;;14.10;68.20;;;;;;5107241;28;20263;-68
2022/12/03 09:06:20;;;;;;;4.57;3.85;;;14.20;68.20;;;;;;5123076;28;20046;-67
2022/12/03 09:08:46;;;;;;;4.63;4.13;;;14.20;68.20;;;;;;5123926;28;20409;-68
2022/12/03 09:11:12;;;;;;;5.30;3.95;;;14.10;68.10;;;;;;5123901;28;20043;-68
2022/12/03 09:13:38;;;;;;;4.05;3.33;;;14.20;68.10;;;;;;5123825;28;20026;-68
2022/12/03 09:16:04;;;;;;;5.20;3.97;;;14.20;68.10;;;;;;5123734;28;20034;-68
2022/12/03 09:18:31;;;;;;;4.95;3.63;;;14.20;68.00;;;;;;5123767;28;20011;-67
2022/12/03 09:20:57;;;;;;;5.38;3.75;;;14.20;68.00;;;;;;5123657;28;20019;-68
2022/12/03 09:23:23;;;;;;;5.07;4.53;;;14.20;68.00;;;;;;5123613;28;20079;-68
2022/12/03 09:25:48;;;;;;;5.60;4.13;;;14.20;68.00;;;;;;5123566;28;20257;-67
2022/12/03 09:28:14;;;;;;;5.65;3.95;;;14.20;68.00;;;;;;5123500;28;20027;-67
2022/12/03 09:30:40;;;;;;;5.07;3.75;;;14.20;68.00;;;;;;5123539;28;20024;-68
2022/12/03 09:33:06;;;;;;;4.22;3.35;;;14.20;68.00;;;;;;5123440;28;20373;-68
2022/12/03 09:35:32;;;;;;;5.07;4.30;;;14.20;68.00;;;;;;5123231;28;20019;-67
2022/12/03 09:37:57;;;;;;;5.60;4.28;;;14.20;67.90;;;;;;5123382;28;20312;-68
2022/12/03 09:40:23;;;;;;;6.20;4.30;;;14.20;68.00;;;;;;5123294;28;20337;-68
2022/12/03 09:42:50;;;;;;;5.68;4.45;;;14.20;67.90;;;;;;5123066;28;20055;-67
2022/12/03 09:45:17;;;;;;;5.82;3.90;;;14.20;67.90;;;;;;5123247;28;20022;-67
2022/12/03 09:47:48;;;;;;;5.10;3.67;;;14.20;67.90;;;;;;5123238;28;20029;-67
2022/12/03 09:50:20;;;;;;;4.70;3.80;;;14.20;68.00;;;;;;5123181;28;20027;-68
2022/12/03 09:52:48;;;;;;;5.57;4.43;;;14.20;68.20;;;;;;5123139;28;20307;-68
2022/12/03 09:55:21;;;;;;;4.53;3.60;;;14.20;68.20;;;;;;5122934;28;20031;-67
2022/12/03 09:57:47;;;;;;;4.68;3.58;;;14.20;68.10;;;;;;5122990;28;20026;-69
2022/12/03 10:00:23;;;;;;;5.50;4.25;;;14.20;68.20;;;;;;5122912;28;20027;-68
2022/12/03 10:02:51;;;;;;;5.55;4.13;;;14.20;68.10;;;;;;5122984;28;20065;-69
2022/12/03 10:05:21;;;;;;;5.35;4.07;;;14.20;68.10;;;;;;5122760;28;20023;-70
2022/12/03 10:07:51;;;;;;;6.53;4.25;;;14.20;68.20;;;;;;5122838;28;20252;-68
2022/12/03 10:10:19;;;;;;;5.00;3.80;;;14.20;68.20;;;;;;5122764;28;20019;-67
2022/12/03 10:12:46;;;;;;;4.82;3.83;;;14.20;68.20;;;;;;5122759;28;20350;-66
2022/12/03 10:15:17;;;;;;;4.88;3.83;;;14.10;68.10;;;;;;5122678;28;20032;-68
2022/12/03 10:17:45;;;;;;;3.50;3.20;;;14.20;68.10;;;;;;5122533;28;20049;-68
2022/12/03 10:20:17;;;;;;;4.67;3.93;;;14.20;68.10;;;;;;5122587;28;20315;-68
2022/12/03 10:22:42;;;;;;;4.32;3.67;;;14.20;68.20;;;;;;5122685;28;20582;-67
2022/12/03 10:25:15;;;;;;;4.65;3.85;;;14.20;68.10;;;;;;5122638;28;20027;-68
2022/12/03 10:27:41;;;;;;;6.00;4.35;;;14.20;68.00;;;;;;5122601;28;20204;-67
2022/12/03 10:30:25;;;;;;;4.30;3.75;;;14.20;68.10;;;;;;5122564;28;20080;-68
2022/12/03 10:32:51;;;;;;;5.20;3.80;;;14.20;67.90;;;;;;5122592;28;20082;-67
2022/12/03 10:35:21;;;;;;;5.93;4.50;;;14.20;68.00;;;;;;5122410;28;20019;-68
2022/12/03 10:37:58;;;;;;;4.53;3.50;;;14.20;68.00;;;;;;5122503;28;20307;-68
2022/12/03 10:40:35;;;;;;;5.15;3.55;;;14.20;67.90;;;;;;5104281;28;20056;-68
2022/12/03 10:43:13;;;;;;;4.13;3.60;;;14.20;67.90;;;;;;5122269;28;20092;-69
2022/12/03 10:45:40;;;;;;;4.43;3.67;;;14.20;67.90;;;;;;5122443;28;20350;-67
2022/12/03 10:48:15;;;;;;;5.45;3.85;;;14.20;68.00;;;;;;5122400;28;20304;-67
2022/12/03 10:50:55;;;;;;;4.78;3.80;;;14.20;67.90;;;;;;5122368;28;20024;-67
2022/12/03 10:53:27;;;;;;;5.47;3.97;;;14.20;67.80;;;;;;5122308;28;20055;-68
2022/12/03 10:55:58;;;;;;;5.05;4.35;;;14.20;68.00;;;;;;5122301;28;20020;-68
2022/12/03 10:58:28;;;;;;;4.45;3.88;;;14.20;67.90;;;;;;5122282;28;20019;-68
2022/12/03 11:00:56;;;;;;;5.88;4.53;;;14.20;67.90;;;;;;5122232;28;20007;-68
2022/12/03 11:03:24;;;;;;;5.33;4.00;;;14.20;67.90;;;;;;5122233;28;20028;-68
2022/12/03 11:05:51;;;;;;;6.35;4.45;;;14.20;67.90;;;;;;5122276;28;20024;-68
2022/12/03 11:08:25;;;;;;;5.60;4.13;;;14.20;68.10;;;;;;5122191;28;20188;-67
2022/12/03 11:10:59;;;;;;;5.38;4.10;;;14.20;68.10;;;;;;5122234;28;20107;-68
2022/12/03 11:13:27;;;;;;;4.85;3.88;;;14.20;68.20;;;;;;5122194;28;20026;-68
2022/12/03 11:15:53;;;;;;;4.93;4.22;;;14.20;68.10;;;;;;5122181;28;20027;-67
2022/12/03 11:18:48;;;;;;;5.07;3.90;;;14.20;68.10;;;;;;5122177;28;20023;-68
2022/12/03 11:21:14;;;;;;;4.90;3.83;;;14.20;68.10;;;;;;5104403;28;20049;-67
2022/12/03 11:23:45;;;;;;;5.38;3.95;;;14.10;68.20;;;;;;5122125;28;20333;-68
2022/12/03 11:26:11;;;;;;;5.43;4.20;;;14.20;68.20;;;;;;5122097;28;20023;-68
2022/12/03 11:28:53;;;;;;;5.85;4.40;;;14.20;68.20;;;;;;5122076;28;20032;-67
2022/12/03 11:31:39;;;;;;;5.30;3.78;;;14.20;68.10;;;;;;5125858;28;20028;-67
2022/12/03 11:34:20;;;;;;;5.65;3.83;;;14.20;68.10;;;;;;5125635;28;20011;-68
2022/12/03 11:37:10;;;;;;;4.70;3.85;;;14.20;68.00;;;;;;5125611;28;20023;-68
2022/12/03 11:39:48;;;;;;;4.38;3.97;;;14.20;67.90;;;;;;5125627;28;20055;-68
2022/12/03 11:42:26;;;;;;;5.65;4.07;;;14.30;67.90;;;;;;5125432;28;20077;-68
2022/12/03 11:45:04;;;;;;;4.45;3.58;;;14.30;67.90;;;;;;5107435;28;20023;-68
2022/12/03 11:47:35;;;;;;;4.50;3.55;;;14.30;67.70;;;;;;5125567;28;20075;-68
2022/12/03 11:50:01;;;;;;;4.78;3.83;;;14.30;67.80;;;;;;5125456;28;20019;-68
2022/12/03 11:52:30;;;;;;;4.75;3.80;;;14.30;67.80;;;;;;5125467;28;20022;-67
2022/12/03 11:55:12;;;;;;;4.72;3.28;;;14.30;67.70;;;;;;5125363;28;20023;-68
2022/12/03 11:57:39;;;;;;;5.47;3.70;;;14.30;67.70;;;;;;5125437;28;20016;-68
2022/12/03 12:00:14;;;;;;;5.05;3.95;;;14.30;67.70;;;;;;5125356;28;20049;-67
2022/12/03 12:02:40;;;;;;;5.80;4.05;;;14.30;67.70;;;;;;5125296;28;20015;-68
2022/12/03 12:05:42;;;;;;;4.85;4.07;;;14.30;67.70;;;;;;5125331;28;20311;-68
2022/12/03 12:08:17;;;;;;;4.32;3.28;;;14.30;67.60;;;;;;5121038;28;20270;-68
2022/12/03 12:10:46;;;;;;;4.93;4.03;;;14.30;67.70;;;;;;5125114;28;20027;-68
2022/12/03 12:13:30;;;;;;;5.63;3.97;;;14.30;67.70;;;;;;5106860;28;20266;-69
2022/12/03 12:15:57;;;;;;;3.78;3.38;;;14.40;67.50;;;;;;5124941;28;20211;-68
2022/12/03 12:18:43;;;;;;;5.05;3.75;;;14.40;67.50;;;;;;5124942;28;20035;-67
2022/12/03 12:21:37;;;;;;;4.45;3.38;;;14.50;67.30;;;;;;5124952;28;20016;-69
2022/12/03 12:24:30;;;;;;;4.75;3.65;;;14.50;67.40;;;;;;5124751;28;20019;-67
2022/12/03 12:27:00;;;;;;;5.13;3.80;;;14.40;67.30;;;;;;5124760;28;20022;-69
2022/12/03 12:29:27;;;;;;;5.18;3.90;;;14.40;67.50;;;;;;5124765;28;20020;-68
2022/12/03 12:32:04;;;;;;;4.38;3.53;;;14.40;67.50;;;;;;5124692;28;20307;-68
2022/12/03 12:34:30;;;;;;;4.75;4.05;;;14.40;67.50;;;;;;5106355;28;20032;-68
2022/12/03 12:36:59;;;;;;;5.63;3.88;;;14.40;67.60;;;;;;5124603;28;20181;-68
2022/12/03 12:39:26;;;;;;;3.97;3.20;;;14.40;67.60;;;;;;5124633;28;20026;-68
2022/12/03 12:41:52;;;;;;;4.25;3.47;;;14.40;67.70;;;;;;5124250;28;20012;-68
2022/12/03 12:44:22;;;;;;;5.45;4.00;;;14.30;67.70;;;;;;5124569;28;20038;-69
2022/12/03 12:46:49;;;;;;;4.80;3.72;;;14.30;67.70;;;;;;5106231;28;20053;-69
2022/12/03 12:49:15;;;;;;;4.97;3.63;;;14.30;67.70;;;;;;5124298;28;20244;-68
2022/12/03 12:51:45;;;;;;;4.53;3.92;;;14.30;67.70;;;;;;5124319;28;20015;-67
2022/12/03 12:54:13;;;;;;;5.30;3.92;;;14.30;67.70;;;;;;5124137;28;20016;-67
2022/12/03 12:56:42;;;;;;;4.88;3.80;;;14.30;67.90;;;;;;5124276;28;20030;-69
2022/12/03 12:59:28;;;;;;;4.82;3.47;;;14.30;67.90;;;;;;5124184;28;20363;-69
2022/12/03 13:01:54;;;;;;;4.50;3.85;;;14.30;68.00;;;;;;5105894;28;20216;-66
2022/12/03 13:04:22;;;;;;;4.90;4.20;;;14.20;68.10;;;;;;5105811;28;20241;-68
2022/12/03 13:06:51;;;;;;;5.20;4.07;;;14.20;68.80;;;;;;5105799;28;20039;-68
2022/12/03 13:09:21;;;;;;;5.47;4.18;;;14.20;68.10;;;;;;5123920;28;20266;-68
2022/12/03 13:11:52;;;;;;;5.40;4.07;;;14.20;68.20;;;;;;5123904;28;20318;-68
2022/12/03 13:14:23;;;;;;;4.97;3.95;;;14.20;68.20;;;;;;5123812;28;20019;-68
2022/12/03 13:16:51;;;;;;;4.90;3.75;;;14.20;68.10;;;;;;5123922;28;20233;-68